Fola, West Virginia
Current Conditions -  °F | °C
As of 9:54 PM on Saturday 24 Jan 2015 (Local Time) from KCRW Reporting Station
Overcast Overcast  
Wind Chill: 27°   Ceiling: 1800
Heat Index: 35°   Visibility: 8mi
Dew Point: 30°   Wind: 12mph
Humidity: 82%   Direction: 250°WSW
Pressure: 29.83"   Gusts: NA
Location:  38.3787°N, 81.1092°W
Report Text: KCRW 250254Z 25010KT 8SM BKN018 OVC036 02/M01 A2983 RMK AO2 SLP108 T00171011 51023
Loading
Personal Weather Stations






























Interactive Weather Map New forecast layout! Learn more

10-Day Weather Forecast

Advertisements
Track Severe Weather on mobile